Agana Heights, GU

3:50 AM ChST on February 10, 2016 (GMT +1000)
Maite | | Change Station
CLOSE
Current Station
Personal Weather Station
Location: Maite, GU
Elevation: 140 ft
Nearby Weather Stations

Elev 140 ft 13.48 °N, 144.76 °E | Updated 1 second ago

Scattered Clouds
Scattered Clouds
76.5 °F
Feels Like 77 °F
N
4.0
Wind Variable Wind from East
Gusts 8.0 mph

Today
High -- | Low -- °F
--% Chance of Precip.
Yesterday
High -- | Low -- °F
Precip. -- in
Pressure 29.89 in
Visibility 10.0 miles
Clouds Few 3800 ft
Scattered Clouds 4800 ft
Heat Index 77 °F
Dew Point 72 °F
Humidity 85%
Rainfall 0.00 in
Snow Depth Not available.
6:46 AM 6:24 PM
New Moon, 2% visible
METAR PGUM 091654Z 05007KT 10SM FEW038 SCT048 24/22 A2991 RMK AO2 SLP120 T02390217 $
Pressure 29.89 in
Visibility 10.0 miles
Clouds Few 3800 ft
Scattered Clouds 4800 ft
Heat Index 77 °F
Dew Point 72 °F
Humidity 85%
Rainfall 0.00 in
Snow Depth Not available.
6:46 AM 6:24 PM
New Moon, 2% visible
METAR PGUM 091654Z 05007KT 10SM FEW038 SCT048 24/22 A2991 RMK AO2 SLP120 T02390217 $

10-Day Weather Forecast

Almanac

Astronomy

Feb. 10, 2016 Rise Set
Actual Time
Civil Twilight
Nautical Twilight
Astronomical Twilight
Moon
Length of Visible Light
Length of Day
Tomorrow will be .
, % of the Moon is Illuminated

Today's Extremes

State Highs State Lows

Community

WunderPhotos

Upload Photos

1,891,650 photos uploaded!

WunderBlog® & News

Nearby

Air Quality

  Air Quality AQ Index Pollutant
Not available.

Snow Depth

Station Depth Elevation

Earthquake Activity

City Distance Mag. Time & Date
Minimum magnitude displayed is 2.5.

Coastal Water Temperatures

Place Temperature

Stations

Nearby Weather Stations

Station Location Temp. Windchill Dew Point Humidity Wind Precip. Elev Updated Type
                   

Watches & Warnings

There are currently no watches in effect.